Time;durP1;ratioP1;P1;durP2;ratioP2;P2;SDS_P1;SDS_P2;PMS_P1;PMS_P2;Temp;Humidity;BMP_temperature;BMP_pressure;BME280_temperature;BME280_humidity;BME280_pressure;Samples;Min_cycle;Max_cycle;Signal;HPM_P1;HPM_P2
2021/10/30 00:02:15;;;;;;;;;17.00;15.00;;;;;13.05;79.35;99109.03;5038290;28;45219;-78
2021/10/30 00:04:41;;;;;;;;;18.75;17.25;;;;;13.07;79.01;99111.59;5036362;28;45248;-78
2021/10/30 00:07:06;;;;;;;;;16.25;15.50;;;;;13.00;78.99;99099.75;5036407;28;45200;-78
2021/10/30 00:09:31;;;;;;;;;14.25;14.00;;;;;13.02;79.15;99117.31;5037866;28;45340;-79
2021/10/30 00:11:56;;;;;;;;;17.50;15.75;;;;;13.00;79.19;99103.28;5038022;28;45328;-78
2021/10/30 00:14:22;;;;;;;;;16.50;14.00;;;;;12.99;78.89;99106.09;5038252;28;45172;-78
2021/10/30 00:16:47;;;;;;;;;15.67;14.67;;;;;12.97;79.44;99087.56;5037688;28;45293;-78
2021/10/30 00:19:12;;;;;;;;;17.50;16.25;;;;;13.01;79.27;99082.78;5037936;28;45327;-78
2021/10/30 00:21:38;;;;;;;;;18.50;14.75;;;;;13.01;79.31;99078.31;5037842;28;45291;-79
2021/10/30 00:24:03;;;;;;;;;16.25;15.50;;;;;13.00;79.32;99075.75;5038035;28;45634;-78
2021/10/30 00:26:29;;;;;;;;;16.00;14.50;;;;;13.01;79.11;99082.78;5037785;28;45306;-78
2021/10/30 00:28:54;;;;;;;;;16.75;16.00;;;;;12.99;78.92;99085.59;5037190;28;45367;-78
2021/10/30 00:31:19;;;;;;;;;15.25;14.75;;;;;13.01;78.92;99085.44;5037645;28;45245;-78
2021/10/30 00:33:45;;;;;;;;;15.00;14.00;;;;;12.98;78.98;99067.88;5037551;28;45094;-78
2021/10/30 00:36:10;;;;;;;;;14.25;13.25;;;;;12.99;78.86;99069.59;5037621;28;45323;-78
2021/10/30 00:38:36;;;;;;;;;13.75;12.75;;;;;13.01;78.93;99072.13;5037048;28;45955;-78
2021/10/30 00:41:06;;;;;;;;;18.00;16.75;;;;;12.99;78.97;99074.91;5037298;28;45298;-78
2021/10/30 00:43:33;;;;;;;;;15.50;14.25;;;;;12.92;79.34;99063.94;5037473;28;45349;-78
2021/10/30 00:45:59;;;;;;;;;14.50;13.50;;;;;12.96;79.00;99061.84;5037447;28;45278;-78
2021/10/30 00:48:24;;;;;;;;;16.75;14.25;;;;;12.97;79.18;99060.03;5037160;28;45200;-78
2021/10/30 00:50:50;;;;;;;;;15.25;14.00;;;;;12.94;79.05;99046.00;5037336;28;45273;-78
2021/10/30 00:53:17;;;;;;;;;14.00;13.50;;;;;12.96;79.11;99043.19;5037232;28;45203;-78
2021/10/30 00:55:44;;;;;;;;;20.00;16.75;;;;;12.96;79.26;99043.19;5035827;28;45207;-78
2021/10/30 00:58:13;;;;;;;;;17.50;14.50;;;;;12.94;79.50;99039.81;5036965;28;45136;-78
2021/10/30 01:00:38;;;;;;;;;14.25;14.25;;;;;12.95;78.96;99041.50;5037230;28;45728;-78
2021/10/30 01:03:05;;;;;;;;;13.25;12.25;;;;;12.98;79.16;99038.53;5036990;28;45351;-79
2021/10/30 01:05:31;;;;;;;;;18.75;17.00;;;;;12.94;79.50;99030.00;5037245;28;45230;-78
2021/10/30 01:07:56;;;;;;;;;12.25;12.25;;;;;13.00;79.11;99041.94;5034522;28;47653;-78
2021/10/30 01:10:22;;;;;;;;;14.00;13.75;;;;;12.95;79.14;99030.81;5037110;28;45134;-79
2021/10/30 01:12:47;;;;;;;;;13.50;13.50;;;;;13.00;79.25;99043.72;5035787;28;45096;-79
2021/10/30 01:15:13;;;;;;;;;17.00;15.50;;;;;12.98;79.18;99033.22;5037059;28;45309;-79
2021/10/30 01:17:38;;;;;;;;;13.50;12.00;;;;;13.00;79.27;99030.41;5036669;28;45290;-79
2021/10/30 01:20:05;;;;;;;;;15.00;14.00;;;;;12.98;79.42;99027.88;5036983;28;45298;-78
2021/10/30 01:22:35;;;;;;;;;13.25;12.25;;;;;13.01;79.24;99024.09;5036831;28;45298;-79
2021/10/30 01:25:01;;;;;;;;;12.50;12.00;;;;;13.01;79.14;99021.41;5036826;28;45261;-78
2021/10/30 01:27:26;;;;;;;;;12.00;12.00;;;;;12.97;79.17;99004.88;5036334;28;46172;-79
2021/10/30 01:29:51;;;;;;;;;10.75;10.75;;;;;12.94;79.31;99003.31;5036745;28;45255;-79
2021/10/30 01:32:18;;;;;;;;;13.75;13.00;;;;;13.01;79.34;99008.94;5036480;28;45283;-79
2021/10/30 01:34:43;;;;;;;;;12.75;11.50;;;;;13.03;79.16;99000.81;5035314;28;45231;-78
2021/10/30 01:37:09;;;;;;;;;13.50;11.25;;;;;13.04;78.78;98997.13;5036444;28;46048;-79
2021/10/30 01:39:34;;;;;;;;;12.50;12.50;;;;;13.04;79.11;98989.13;5036692;28;45219;-79
2021/10/30 01:42:00;;;;;;;;;12.25;9.50;;;;;13.05;79.16;98988.16;5036630;28;45255;-79
2021/10/30 01:44:26;;;;;;;;;9.75;9.75;;;;;13.04;79.12;98987.31;5036708;28;45282;-79
2021/10/30 01:46:59;;;;;;;;;11.00;10.00;;;;;13.04;79.12;98978.44;5036292;28;45175;-80
2021/10/30 01:49:25;;;;;;;;;14.00;12.00;;;;;13.05;79.20;98974.81;5036470;28;45231;-78
2021/10/30 01:51:50;;;;;;;;;12.00;11.50;;;;;13.04;79.10;98965.09;5036590;28;45339;-78
2021/10/30 01:54:16;;;;;;;;;12.50;10.50;;;;;13.06;79.36;98965.81;5036676;28;45237;-78
2021/10/30 01:56:41;;;;;;;;;12.25;12.00;;;;;13.06;79.43;98957.81;5036149;28;46161;-78
2021/10/30 01:59:06;;;;;;;;;12.00;10.50;;;;;13.05;79.35;98962.31;5036285;28;45449;-78
2021/10/30 02:01:32;;;;;;;;;11.67;10.67;;;;;13.02;79.77;98959.09;5036656;28;45239;-79
2021/10/30 02:03:58;;;;;;;;;11.75;11.25;;;;;12.98;79.77;98958.50;5036449;28;45250;-78
2021/10/30 02:06:23;;;;;;;;;12.25;12.25;;;;;12.93;79.45;98950.09;5035856;28;46083;-78
2021/10/30 02:08:49;;;;;;;;;11.00;10.25;;;;;12.94;79.68;98941.94;5035851;28;45334;-78
2021/10/30 02:11:14;;;;;;;;;10.00;10.00;;;;;12.92;79.65;98943.91;5036332;28;45277;-78
2021/10/30 02:13:39;;;;;;;;;13.00;10.50;;;;;12.93;80.11;98940.25;5036101;28;45215;-78
2021/10/30 02:16:05;;;;;;;;;11.25;9.75;;;;;12.93;79.94;98929.59;5036033;28;45292;-78
2021/10/30 02:18:30;;;;;;;;;9.50;8.50;;;;;12.92;80.28;98929.72;5034797;28;45239;-78
2021/10/30 02:20:56;;;;;;;;;11.00;11.00;;;;;12.92;79.92;98919.06;5035958;28;45462;-80
2021/10/30 02:23:21;;;;;;;;;13.25;10.00;;;;;12.90;80.02;98913.88;5036034;28;45242;-79
2021/10/30 02:25:46;;;;;;;;;9.50;9.25;;;;;12.88;80.12;98905.19;5035830;28;46427;-79
2021/10/30 02:28:12;;;;;;;;;11.75;10.25;;;;;12.92;79.91;98903.06;5035586;28;45256;-79
2021/10/30 02:30:37;;;;;;;;;10.00;8.00;;;;;12.93;80.26;98899.41;5036148;28;45175;-79
2021/10/30 02:33:03;;;;;;;;;9.00;9.00;;;;;12.92;79.92;98890.53;5035919;28;45270;-79
2021/10/30 02:35:29;;;;;;;;;12.25;10.00;;;;;12.93;80.30;98884.25;5035955;28;45292;-78
2021/10/30 02:37:54;;;;;;;;;9.75;9.75;;;;;12.92;80.22;98879.06;5035271;28;45240;-78
2021/10/30 02:40:19;;;;;;;;;12.25;10.00;;;;;12.96;80.21;98880.44;5034156;28;45206;-79
2021/10/30 02:42:45;;;;;;;;;10.75;9.50;;;;;12.98;80.05;98878.47;5035763;28;45163;-78
2021/10/30 02:45:10;;;;;;;;;10.50;8.75;;;;;12.97;80.21;98860.81;5034188;28;47362;-79
2021/10/30 02:47:36;;;;;;;;;13.75;9.00;;;;;13.02;80.23;98863.03;5035095;28;45216;-79
2021/10/30 02:50:01;;;;;;;;;9.75;9.00;;;;;13.04;80.21;98866.41;5035712;28;45434;-79
2021/10/30 02:52:27;;;;;;;;;11.25;11.25;;;;;13.02;80.16;98857.69;5035705;28;45217;-79
2021/10/30 02:54:53;;;;;;;;;10.25;8.75;;;;;13.03;79.98;98854.88;5035787;28;45475;-79
2021/10/30 02:57:19;;;;;;;;;11.00;9.75;;;;;13.07;80.21;98850.13;5035308;28;45325;-79
2021/10/30 02:59:44;;;;;;;;;8.75;8.75;;;;;13.06;80.22;98843.94;5035739;28;45187;-79
2021/10/30 03:02:10;;;;;;;;;12.75;9.50;;;;;13.07;80.45;98839.47;5035423;28;45306;-79
2021/10/30 03:04:35;;;;;;;;;9.25;9.00;;;;;13.06;80.10;98833.25;5035215;28;45254;-79
2021/10/30 03:07:00;;;;;;;;;8.00;8.00;;;;;13.06;80.11;98835.09;5035463;28;45215;-79
2021/10/30 03:09:26;;;;;;;;;9.25;9.00;;;;;13.07;80.33;98826.94;5017443;28;45182;-79
2021/10/30 03:11:52;;;;;;;;;9.50;9.50;;;;;13.11;80.31;98832.81;5034175;28;45356;-79
2021/10/30 03:14:18;;;;;;;;;10.25;10.00;;;;;13.10;80.06;98825.81;5035415;28;46093;-79
2021/10/30 03:16:43;;;;;;;;;9.50;9.00;;;;;13.16;80.02;98827.06;5017101;28;45271;-79
2021/10/30 03:19:08;;;;;;;;;10.00;10.00;;;;;13.12;80.02;98800.69;5035467;28;45278;-79
2021/10/30 03:21:34;;;;;;;;;12.75;11.75;;;;;13.14;80.07;98797.88;5035476;28;45162;-79
2021/10/30 03:23:59;;;;;;;;;9.75;8.75;;;;;13.16;79.91;98792.38;5034077;28;46914;-78
2021/10/30 03:26:25;;;;;;;;;12.50;11.00;;;;;13.11;79.98;98796.31;5035076;28;45210;-79
2021/10/30 03:28:50;;;;;;;;;10.25;10.00;;;;;13.15;80.13;98804.03;5034917;28;45140;-79
2021/10/30 03:31:15;;;;;;;;;9.00;9.00;;;;;13.12;79.97;98802.50;5037984;28;45287;-79
2021/10/30 03:33:41;;;;;;;;;9.75;9.75;;;;;13.12;80.20;98797.16;5038410;28;45348;-78
2021/10/30 03:36:06;;;;;;;;;10.25;9.50;;;;;13.10;80.17;98786.63;5038495;28;45291;-79
2021/10/30 03:38:32;;;;;;;;;13.25;10.75;;;;;13.11;79.92;98787.47;5038346;28;45302;-78
2021/10/30 03:40:57;;;;;;;;;10.00;9.00;;;;;13.09;80.00;98776.94;5038977;28;45290;-79
2021/10/30 03:43:22;;;;;;;;;13.25;11.25;;;;;13.11;79.96;98777.66;5038461;28;45333;-79
2021/10/30 03:45:48;;;;;;;;;14.25;10.25;;;;;13.10;80.06;98773.28;5038081;28;45229;-79
2021/10/30 03:48:17;;;;;;;;;11.75;11.75;;;;;13.09;79.97;98765.44;5038197;28;45217;-79
2021/10/30 03:50:42;;;;;;;;;9.50;9.25;;;;;13.09;79.90;98762.75;5038531;28;45215;-79
2021/10/30 03:53:08;;;;;;;;;11.00;11.00;;;;;13.09;80.02;98762.75;5038076;28;45989;-78
2021/10/30 03:55:33;;;;;;;;;12.50;11.00;;;;;13.05;79.79;98756.03;5038356;28;45203;-79
2021/10/30 03:57:59;;;;;;;;;12.25;11.75;;;;;13.08;79.94;98753.06;5038059;28;45504;-79
2021/10/30 04:00:25;;;;;;;;;11.00;10.75;;;;;13.06;80.00;98749.72;5038432;28;45087;-79
2021/10/30 04:02:50;;;;;;;;;10.25;10.25;;;;;13.08;79.56;98753.06;5036467;28;47326;-79
2021/10/30 04:05:16;;;;;;;;;12.00;11.00;;;;;13.04;79.64;98752.53;5037907;28;45291;-78
2021/10/30 04:07:42;;;;;;;;;13.00;12.75;;;;;13.03;80.07;98736.66;5037304;28;45305;-79
2021/10/30 04:10:08;;;;;;;;;9.75;8.75;;;;;13.03;79.73;98753.50;5037414;28;45325;-79
2021/10/30 04:12:33;;;;;;;;;12.00;10.75;;;;;13.03;79.58;98750.84;5037060;28;45553;-79
2021/10/30 04:14:59;;;;;;;;;12.00;10.75;;;;;13.01;79.73;98759.97;5037448;28;45186;-79
2021/10/30 04:17:24;;;;;;;;;14.75;11.00;;;;;13.02;79.71;98762.50;5037066;28;45258;-79
2021/10/30 04:19:49;;;;;;;;;8.50;8.00;;;;;13.02;79.65;98756.31;5037187;28;45277;-78
2021/10/30 04:22:14;;;;;;;;;10.50;9.25;;;;;12.98;79.60;98750.41;5036932;28;46290;-78
2021/10/30 04:24:40;;;;;;;;;12.25;11.25;;;;;13.00;79.35;98753.81;5037142;28;45196;-78
2021/10/30 04:27:05;;;;;;;;;9.75;9.25;;;;;12.98;79.65;98755.75;5037071;28;45313;-79
2021/10/30 04:29:31;;;;;;;;;13.75;12.00;;;;;13.00;79.64;98759.13;5037067;28;45219;-78
2021/10/30 04:31:58;;;;;;;;;12.00;10.00;;;;;12.96;79.72;98752.41;5036920;28;45415;-79
2021/10/30 04:34:34;;;;;;;;;10.50;10.00;;;;;12.97;79.63;98754.09;5036993;28;45046;-78
2021/10/30 04:37:02;;;;;;;;;11.50;10.00;;;;;12.96;79.69;98755.06;5036803;28;45230;-79
2021/10/30 04:39:27;;;;;;;;;15.75;11.00;;;;;12.95;79.81;98751.56;5036756;28;45357;-79
2021/10/30 04:41:53;;;;;;;;;10.75;9.25;;;;;12.90;79.69;98737.00;5034170;28;46411;-79
2021/10/30 04:44:18;;;;;;;;;10.75;10.75;;;;;12.90;79.94;98753.81;5036828;28;45257;-79
2021/10/30 04:46:43;;;;;;;;;9.00;9.00;;;;;12.93;79.66;98750.88;5036820;28;45227;-78
2021/10/30 04:49:09;;;;;;;;;9.00;9.00;;;;;12.94;79.97;98749.06;5037047;28;45199;-78
2021/10/30 04:51:34;;;;;;;;;9.25;9.25;;;;;12.93;79.88;98748.19;5037311;28;45330;-79
2021/10/30 04:53:59;;;;;;;;;11.25;10.00;;;;;12.91;79.87;98730.66;5037414;28;45257;-78
2021/10/30 04:56:25;;;;;;;;;14.67;11.00;;;;;12.94;79.82;98736.56;5035821;28;45274;-79
2021/10/30 04:58:50;;;;;;;;;10.50;9.50;;;;;12.95;79.84;98734.72;5036882;28;45282;-79
2021/10/30 05:01:16;;;;;;;;;10.25;9.50;;;;;12.95;79.84;98729.38;5037228;28;45925;-79
2021/10/30 05:03:42;;;;;;;;;10.25;10.25;;;;;12.94;79.86;98727.72;5036993;28;45224;-79
2021/10/30 05:06:09;;;;;;;;;9.50;9.00;;;;;12.94;79.83;98733.06;5037166;28;45163;-79
2021/10/30 05:08:35;;;;;;;;;10.00;8.75;;;;;12.93;79.95;98732.19;5018925;28;45326;-79
2021/10/30 05:11:01;;;;;;;;;9.25;9.25;;;;;12.92;79.80;98727.84;5037023;28;45240;-79
2021/10/30 05:13:26;;;;;;;;;7.00;7.00;;;;;12.89;80.22;98725.47;5036908;28;45244;-79
2021/10/30 05:15:51;;;;;;;;;10.25;9.25;;;;;12.89;80.35;98714.78;5037038;28;45221;-79
2021/10/30 05:18:17;;;;;;;;;7.00;7.00;;;;;12.86;80.50;98715.09;5018499;28;45251;-79
2021/10/30 05:20:42;;;;;;;;;9.50;8.25;;;;;12.89;80.33;98713.97;5035976;28;46043;-79
2021/10/30 05:23:08;;;;;;;;;9.00;7.00;;;;;12.90;80.31;98713.81;5036026;28;45223;-79
2021/10/30 05:25:33;;;;;;;;;8.25;7.25;;;;;12.90;80.24;98705.81;5036433;28;45362;-79
2021/10/30 05:27:58;;;;;;;;;7.00;7.00;;;;;12.94;80.59;98719.72;5036156;28;45210;-79
2021/10/30 05:30:24;;;;;;;;;13.75;9.00;;;;;12.94;80.30;98706.38;5035883;28;45305;-79
2021/10/30 05:32:49;;;;;;;;;7.00;7.00;;;;;12.94;80.23;98693.03;5036290;28;45250;-79
2021/10/30 05:35:14;;;;;;;;;8.00;8.00;;;;;12.96;80.41;98699.06;5036271;28;45217;-79
2021/10/30 05:37:40;;;;;;;;;9.00;6.50;;;;;12.92;80.58;98698.50;5036506;28;45318;-78
2021/10/30 05:40:08;;;;;;;;;8.50;7.50;;;;;12.94;81.04;98706.38;5036445;28;45238;-79
2021/10/30 05:42:42;;;;;;;;;8.00;7.00;;;;;12.96;80.82;98704.41;5036467;28;45469;-79
2021/10/30 05:45:08;;;;;;;;;10.25;8.00;;;;;12.94;80.81;98703.72;5035693;28;45188;-79
2021/10/30 05:47:35;;;;;;;;;12.25;7.50;;;;;12.97;80.78;98708.75;5036648;28;45410;-79
2021/10/30 05:50:01;;;;;;;;;7.50;7.50;;;;;12.97;80.88;98706.09;5036247;28;45566;-78
2021/10/30 05:52:26;;;;;;;;;8.00;7.00;;;;;12.98;80.57;98705.06;5018569;28;45700;-78
2021/10/30 05:54:52;;;;;;;;;7.00;6.75;;;;;12.99;80.82;98706.75;5036595;28;45589;-78
2021/10/30 05:57:17;;;;;;;;;8.00;6.00;;;;;12.93;80.86;98688.69;5036220;28;45159;-78
2021/10/30 05:59:42;;;;;;;;;8.50;6.00;;;;;13.00;81.20;98692.44;5036404;28;45272;-78
2021/10/30 06:02:12;;;;;;;;;8.50;8.50;;;;;13.02;80.80;98702.97;5036354;28;45318;-78
2021/10/30 06:04:38;;;;;;;;;7.00;7.00;;;;;13.03;80.95;98707.31;5036039;28;45216;-78
2021/10/30 06:07:03;;;;;;;;;9.50;7.00;;;;;13.05;80.83;98705.34;5036410;28;45293;-78
2021/10/30 06:09:29;;;;;;;;;7.25;6.25;;;;;13.05;80.87;98708.00;5036133;28;45173;-78
2021/10/30 06:11:54;;;;;;;;;9.00;7.25;;;;;13.05;80.76;98700.00;5036330;28;45173;-79
2021/10/30 06:14:19;;;;;;;;;6.00;6.00;;;;;13.08;80.90;98695.22;5036249;28;45129;-79
2021/10/30 06:16:45;;;;;;;;;9.00;7.00;;;;;13.13;81.05;98700.13;5036256;28;45279;-79
2021/10/30 06:19:10;;;;;;;;;9.00;8.00;;;;;13.12;81.11;98690.41;5035735;28;45306;-79
2021/10/30 06:21:35;;;;;;;;;7.25;7.25;;;;;13.12;80.76;98691.28;5035951;28;45359;-79
2021/10/30 06:24:01;;;;;;;;;8.00;7.00;;;;;13.17;80.92;98701.50;5036368;28;45741;-79
2021/10/30 06:26:27;;;;;;;;;10.50;7.25;;;;;13.20;80.90;98695.03;5034596;28;45351;-79
2021/10/30 06:28:54;;;;;;;;;5.00;5.00;;;;;13.23;80.80;98687.56;5035555;28;45588;-79
2021/10/30 06:31:19;;;;;;;;;7.00;6.50;;;;;13.22;80.73;98685.06;5035961;28;45259;-79
2021/10/30 06:33:44;;;;;;;;;10.00;8.50;;;;;13.26;80.53;98694.44;5035857;28;45238;-79
2021/10/30 06:36:10;;;;;;;;;7.00;7.00;;;;;13.28;80.55;98695.13;5036061;28;45286;-79
2021/10/30 06:38:35;;;;;;;;;8.50;8.50;;;;;13.22;80.43;98679.72;5035436;28;45188;-81
2021/10/30 06:41:02;;;;;;;;;8.75;8.25;;;;;13.27;80.61;98680.13;5036148;28;45198;-82
2021/10/30 06:43:30;;;;;;;;;6.25;6.25;;;;;13.31;80.25;98681.50;5035839;28;45192;-82
2021/10/30 06:45:56;;;;;;;;;7.75;6.50;;;;;13.32;80.41;98680.50;5017766;28;45390;-82
2021/10/30 06:48:21;;;;;;;;;7.00;7.00;;;;;13.32;80.77;98682.34;5035629;28;46603;-82
2021/10/30 06:50:47;;;;;;;;;8.00;6.75;;;;;13.29;80.51;98697.63;5017861;28;45811;-82
2021/10/30 06:53:12;;;;;;;;;8.00;6.25;;;;;13.33;80.94;98694.69;5035796;28;45261;-82
2021/10/30 06:55:38;;;;;;;;;8.00;6.00;;;;;13.28;80.71;98673.78;5035820;28;45175;-82
2021/10/30 06:58:05;;;;;;;;;4.25;4.25;;;;;13.38;80.92;98687.09;5035543;28;45333;-82
2021/10/30 07:00:30;;;;;;;;;9.75;6.75;;;;;13.38;80.57;98677.28;5017472;28;45699;-82
2021/10/30 07:02:55;;;;;;;;;8.50;6.50;;;;;13.28;80.75;98661.28;5035676;28;45193;-82
2021/10/30 07:05:21;;;;;;;;;8.75;8.00;;;;;13.32;80.82;98672.50;5035223;28;45187;-83
2021/10/30 07:07:47;;;;;;;;;5.50;5.50;;;;;13.38;80.81;98692.44;5038770;28;45450;-82
2021/10/30 07:10:12;;;;;;;;;5.50;5.50;;;;;13.31;80.77;98673.50;5021027;28;45903;-82
2021/10/30 07:12:38;;;;;;;;;7.00;5.75;;;;;13.33;80.99;98674.19;5039215;28;45229;-82
2021/10/30 07:15:06;;;;;;;;;5.50;5.50;;;;;13.42;80.58;98692.00;5039450;28;45218;-82
2021/10/30 07:17:31;;;;;;;;;7.75;7.75;;;;;13.43;80.52;98690.19;5039089;28;46119;-82
2021/10/30 07:19:57;;;;;;;;;6.00;6.00;;;;;13.43;80.79;98690.19;5037705;28;45233;-82
2021/10/30 07:22:22;;;;;;;;;7.25;6.25;;;;;13.47;80.80;98694.22;5037391;28;45283;-82
2021/10/30 07:24:47;;;;;;;;;5.00;5.00;;;;;13.42;80.38;98694.66;5037505;28;45303;-82
2021/10/30 07:27:16;;;;;;;;;6.00;6.00;;;;;13.40;80.69;98682.47;5038397;28;45289;-82
2021/10/30 07:29:44;;;;;;;;;8.75;6.00;;;;;13.49;80.66;98702.91;5038503;28;45322;-79
2021/10/30 07:32:09;;;;;;;;;7.00;6.00;;;;;13.50;80.60;98704.59;5038601;28;45521;-79
2021/10/30 07:34:35;;;;;;;;;5.00;5.00;;;;;13.51;80.54;98700.09;5039050;28;45441;-78
2021/10/30 07:37:00;;;;;;;;;5.50;5.50;;;;;13.55;80.32;98706.81;5038212;28;45620;-78
2021/10/30 07:39:25;;;;;;;;;6.50;6.50;;;;;13.63;80.13;98713.09;5038431;28;45242;-78
2021/10/30 07:41:50;;;;;;;;;8.00;6.00;;;;;13.67;79.73;98707.44;5039272;28;45202;-77
2021/10/30 07:44:16;;;;;;;;;7.25;6.75;;;;;13.66;80.06;98693.25;5038904;28;45272;-79
2021/10/30 07:46:41;;;;;;;;;7.00;7.00;;;;;13.73;80.04;98704.19;5038422;28;45521;-80
2021/10/30 07:49:06;;;;;;;;;4.00;2.50;;;;;13.72;79.72;98699.84;5038523;28;45279;-79
2021/10/30 07:51:32;;;;;;;;;8.00;6.75;;;;;13.75;80.04;98719.09;5038896;28;45157;-79
2021/10/30 07:53:58;;;;;;;;;9.75;8.75;;;;;13.79;79.38;98720.44;5038295;28;45294;-80
2021/10/30 07:56:23;;;;;;;;;6.00;5.25;;;;;13.79;79.44;98715.09;5038468;28;45220;-79
2021/10/30 07:58:49;;;;;;;;;6.00;5.00;;;;;13.83;79.22;98722.84;5037987;28;45180;-79
2021/10/30 08:01:15;;;;;;;;;6.25;5.75;;;;;13.78;79.28;98713.44;5038387;28;45191;-79
2021/10/30 08:03:41;;;;;;;;;6.75;6.00;;;;;13.83;79.76;98725.50;5038160;28;45261;-79
2021/10/30 08:06:07;;;;;;;;;7.75;5.75;;;;;13.84;79.82;98724.50;5037955;28;45194;-79
2021/10/30 08:08:32;;;;;;;;;5.00;5.00;;;;;13.81;79.71;98729.16;5037908;28;45339;-79
2021/10/30 08:10:58;;;;;;;;;5.00;5.00;;;;;13.78;79.81;98726.78;5038535;28;45223;-79
2021/10/30 08:13:24;;;;;;;;;7.00;5.50;;;;;13.78;79.99;98734.81;5036826;28;45382;-79
2021/10/30 08:15:49;;;;;;;;;6.50;6.50;;;;;13.76;80.03;98734.09;5037783;28;45830;-79
2021/10/30 08:18:14;;;;;;;;;5.00;5.00;;;;;13.78;80.12;98739.28;5035390;28;45684;-79
2021/10/30 08:20:40;;;;;;;;;5.25;5.25;;;;;13.79;80.09;98740.97;5038226;28;45111;-79
2021/10/30 08:23:05;;;;;;;;;5.75;4.00;;;;;13.79;80.32;98733.78;5038043;28;45188;-79
2021/10/30 08:25:32;;;;;;;;;6.50;5.00;;;;;13.78;79.97;98745.50;5037954;28;45982;-79
2021/10/30 08:27:57;;;;;;;;;4.75;4.00;;;;;13.82;79.70;98748.69;5037829;28;45530;-80
2021/10/30 08:30:24;;;;;;;;;8.00;6.00;;;;;13.83;79.93;98738.88;5038661;28;45281;-80
2021/10/30 08:32:49;;;;;;;;;5.75;5.00;;;;;13.82;80.28;98740.66;5019956;28;45470;-80
2021/10/30 08:35:15;;;;;;;;;7.50;6.75;;;;;13.85;79.91;98745.72;5037954;28;45236;-80
2021/10/30 08:37:40;;;;;;;;;4.50;4.50;;;;;13.85;80.25;98745.72;5037656;28;45242;-80
2021/10/30 08:40:12;;;;;;;;;6.25;5.75;;;;;13.85;80.12;98740.38;5038171;28;45251;-80
2021/10/30 08:42:37;;;;;;;;;5.00;4.25;;;;;13.87;79.76;98751.75;5037578;28;45266;-79
2021/10/30 08:45:06;;;;;;;;;6.50;5.25;;;;;13.89;80.33;98746.25;5037761;28;45889;-80
2021/10/30 08:47:33;;;;;;;;;5.50;5.00;;;;;13.87;80.22;98738.41;5037424;28;45531;-79
2021/10/30 08:49:59;;;;;;;;;5.50;4.75;;;;;13.91;80.14;98747.81;5037758;28;45289;-79
2021/10/30 08:52:24;;;;;;;;;7.00;6.50;;;;;13.93;80.14;98750.31;5037731;28;45220;-79
2021/10/30 08:54:49;;;;;;;;;6.00;4.00;;;;;13.95;80.39;98751.00;5037810;28;46480;-79
2021/10/30 08:57:15;;;;;;;;;6.00;5.00;;;;;13.95;80.12;98733.16;5036022;28;45546;-79
2021/10/30 08:59:45;;;;;;;;;5.00;4.00;;;;;14.02;80.38;98746.72;5037535;28;45139;-79
2021/10/30 09:02:30;;;;;;;;;5.75;5.00;;;;;14.02;79.94;98740.56;5037951;28;45440;-79
2021/10/30 09:05:19;;;;;;;;;6.75;5.00;;;;;14.01;79.83;98736.19;5037277;28;45250;-79
2021/10/30 09:07:46;;;;;;;;;7.00;6.00;;;;;14.06;79.94;98748.09;5037073;28;45226;-79
2021/10/30 09:10:16;;;;;;;;;6.25;5.25;;;;;14.09;80.06;98739.78;5037318;28;45246;-79
2021/10/30 09:12:59;;;;;;;;;5.25;4.00;;;;;14.14;79.99;98744.69;5037161;28;45252;-79
2021/10/30 09:15:39;;;;;;;;;3.25;3.00;;;;;14.17;79.95;98740.88;5037022;28;45279;-79
2021/10/30 09:18:29;;;;;;;;;6.25;4.00;;;;;14.20;79.87;98748.59;5036656;28;45556;-79
2021/10/30 09:20:56;;;;;;;;;3.75;3.00;;;;;14.19;79.75;98752.25;5035640;28;45187;-79
2021/10/30 09:23:25;;;;;;;;;5.75;4.50;;;;;14.24;79.81;98753.47;5036975;28;45125;-79
2021/10/30 09:26:04;;;;;;;;;4.00;4.00;;;;;14.28;79.43;98762.00;5035583;28;47940;-79
2021/10/30 09:28:36;;;;;;;;;2.00;2.00;;;;;14.29;79.25;98761.88;5036206;28;45541;-79
2021/10/30 09:31:08;;;;;;;;;4.00;4.00;;;;;14.30;79.29;98755.53;5037134;28;45331;-79
2021/10/30 09:33:36;;;;;;;;;2.50;2.50;;;;;14.31;79.11;98745.69;5036680;28;45177;-79
2021/10/30 09:36:10;;;;;;;;;3.25;2.25;;;;;14.31;79.00;98756.38;5018691;28;47731;-79
2021/10/30 09:38:39;;;;;;;;;3.00;2.25;;;;;14.32;79.22;98750.03;5036277;28;45587;-79
2021/10/30 09:41:26;;;;;;;;;3.50;3.00;;;;;14.32;79.33;98758.91;5036860;28;45239;-80
2021/10/30 09:44:14;;;;;;;;;1.50;1.50;;;;;14.33;79.57;98765.06;5036856;28;45207;-80
2021/10/30 09:46:45;;;;;;;;;2.00;2.00;;;;;14.33;79.81;98759.72;5022805;28;45263;-80
2021/10/30 09:49:21;;;;;;;;;2.25;2.00;;;;;14.32;80.10;98782.97;5036598;28;45305;-79
2021/10/30 09:51:51;;;;;;;;;1.75;1.75;;;;;14.31;79.93;98767.06;5036481;28;45322;-79
2021/10/30 09:54:37;;;;;;;;;1.25;1.25;;;;;14.31;80.27;98772.44;5035304;28;45356;-80
2021/10/30 09:57:06;;;;;;;;;1.50;0.75;;;;;14.32;79.91;98777.63;5036334;28;47098;-79
2021/10/30 09:59:33;;;;;;;;;1.50;0.75;;;;;14.29;80.44;98782.41;5036241;28;45669;-79
2021/10/30 10:01:59;;;;;;;;;1.00;1.00;;;;;14.27;80.28;98787.91;5035732;28;45242;-79
2021/10/30 10:04:27;;;;;;;;;1.00;1.00;;;;;14.24;80.36;98782.88;5036313;28;45277;-79
2021/10/30 10:06:54;;;;;;;;;0.75;0.50;;;;;14.24;80.26;98787.38;5036136;28;46127;-79
2021/10/30 10:09:21;;;;;;;;;6.75;5.75;;;;;14.18;80.49;98775.47;5036225;28;45177;-79
2021/10/30 10:11:48;;;;;;;;;1.50;1.50;;;;;14.18;80.36;98788.84;5034993;28;45256;-79
2021/10/30 10:14:19;;;;;;;;;2.75;2.50;;;;;14.22;80.30;98778.66;5036541;28;45188;-79
2021/10/30 10:16:50;;;;;;;;;0.25;0.25;;;;;14.23;80.46;98777.69;5035532;28;46307;-79
2021/10/30 10:19:17;;;;;;;;;2.50;1.50;;;;;14.21;79.96;98782.31;5035755;28;45379;-79
2021/10/30 10:21:43;;;;;;;;;0.50;0.50;;;;;14.19;79.94;98782.47;5036223;28;45216;-79
2021/10/30 10:24:11;;;;;;;;;1.00;1.00;;;;;14.25;80.41;98789.06;5036318;28;45211;-79
2021/10/30 10:26:47;;;;;;;;;2.75;1.75;;;;;14.27;80.24;98789.75;5035950;28;45906;-80
2021/10/30 10:29:14;;;;;;;;;2.00;2.00;;;;;14.29;80.37;98796.63;5035935;28;45255;-79
2021/10/30 10:31:50;;;;;;;;;1.25;1.25;;;;;14.33;80.00;98799.84;5018097;28;45221;-79
2021/10/30 10:34:20;;;;;;;;;1.50;1.50;;;;;14.36;80.30;98798.69;5036257;28;45056;-79
2021/10/30 10:37:09;;;;;;;;;3.25;2.00;;;;;14.31;79.89;98783.13;5035864;28;46657;-79
2021/10/30 10:39:34;;;;;;;;;2.00;2.00;;;;;14.39;80.08;98788.50;5036064;28;45189;-79
2021/10/30 10:42:00;;;;;;;;;3.00;2.00;;;;;14.43;80.02;98794.41;5039753;28;45285;-79
2021/10/30 10:44:25;;;;;;;;;3.00;3.00;;;;;14.47;80.23;98798.47;5040112;28;45261;-79
2021/10/30 10:46:54;;;;;;;;;1.33;1.33;;;;;14.52;79.85;98793.47;5039378;28;45357;-79
2021/10/30 10:52:13;;;;;;;;;1.50;1.50;;;;;14.59;79.57;98791.03;5039631;28;45247;-79
2021/10/30 10:55:01;;;;;;;;;1.75;1.75;;;;;14.67;79.62;98800.00;5039654;28;45400;-79
2021/10/30 10:57:32;;;;;;;;;1.50;1.50;;;;;14.75;79.38;98790.38;5038980;28;45970;-79
2021/10/30 11:00:00;;;;;;;;;2.00;1.00;;;;;14.75;79.13;98796.56;5039237;28;45567;-79
2021/10/30 11:02:29;;;;;;;;;3.00;1.75;;;;;14.81;78.92;98800.47;5021273;28;45251;-79
2021/10/30 11:05:07;;;;;;;;;1.25;0.50;;;;;14.82;78.89;98797.63;5039195;28;45295;-79
2021/10/30 11:07:32;;;;;;;;;0.00;0.00;;;;;14.80;78.87;98799.59;5038815;28;45236;-79
2021/10/30 11:10:00;;;;;;;;;1.25;1.25;;;;;14.79;79.00;98792.59;5039188;28;45302;-79
2021/10/30 11:12:27;;;;;;;;;0.50;0.50;;;;;14.76;79.08;98779.50;5039129;28;45551;-79
2021/10/30 11:15:08;;;;;;;;;2.50;1.25;;;;;14.78;78.72;98779.38;5037875;28;45195;-79
2021/10/30 11:17:44;;;;;;;;;0.75;0.75;;;;;14.80;78.76;98777.38;5037458;28;47441;-79
2021/10/30 11:20:19;;;;;;;;;0.50;0.00;;;;;14.82;79.04;98788.75;5039129;28;45270;-79
2021/10/30 11:22:59;;;;;;;;;1.00;1.00;;;;;14.82;78.86;98773.56;5039246;28;45272;-79
2021/10/30 11:25:25;;;;;;;;;1.50;1.50;;;;;14.92;78.85;98776.13;5039402;28;45352;-79
2021/10/30 11:27:52;;;;;;;;;0.50;0.50;;;;;14.90;78.57;98785.31;5038775;28;45896;-79
2021/10/30 11:30:30;;;;;;;;;1.00;1.00;;;;;14.93;78.54;98779.63;5038817;28;45198;-79